LIBN/LCC METAR and TAF weather

Enter ICAO airport designator
Station Type Date Time Source
LIBN METAR 2021/03/02 12:55 UTC NOAA

LIBN 021255Z 01011KT CAVOK 15/04 Q1030 RMK SKC VIS MIN 9999 WIND THR14 36013KT WIND THR32 02012KT BLU


Station Type Date Time Source
LIBN Decoded METAR 2021/03/02 12:55 UTC NOAA

Lecce, Italy (LIBN) 40-14N 018-09E 61M
Mar 02, 2021 - 07:55 AM EST / 2021.03.02 1255 UTC
Wind: from the N (010 degrees) at 13 MPH (11 KT):0
Visibility: greater than 7 mile(s):0
Temperature: 59 F (15 C)
Dew Point: 39 F (4 C)
Relative Humidity: 47%
Pressure (altimeter): 30.42 in. Hg (1030 hPa)
ob: LIBN 021255Z 01011KT CAVOK 15/04 Q1030 RMK SKC VIS MIN 9999 WIND THR14 36013KT WIND THR32 02012KT BLU
cycle: 13

Station Type Date Time Source
LIBN TAF 2020/12/04 12:57 UTC NOAA

TAF TAF LIBN 041100Z 0412/0424 24010KT 6000 SCT008 BKN020
TEMPO 0412/0415 2000 RA BKN006 FEW018CB BKN040
BECMG 0417/0419 18010KT 8000 SCT020

Example: see airport list